Date,TemperatureHighF,TemperatureAvgF,TemperatureLowF,DewpointHighF,DewpointAvgF,DewpointLowF,HumidityHigh,HumidityAvg,HumidityLow,PressureMaxIn,PressureMinIn,WindSpeedMaxMPH,WindSpeedAvgMPH,GustSpeedMaxMPH,PrecipitationSumIn
2013-1-1,49.4,41.5,35.1,43.9,38.4,32.3,97,89,71,30.31,30.18,8,2,10,0.01
2013-1-2,52.4,42.3,34.0,44.2,35.5,28.3,90,77,62,30.19,30.06,7,2,10,0.00
2013-1-3,54.3,46.5,38.4,47.1,40.7,31.5,97,80,65,30.27,30.01,19,8,29,0.16
2013-1-4,50.5,46.2,42.1,47.6,44.3,40.8,96,93,85,30.29,30.12,8,2,12,0.01
2013-1-5,50.3,45.5,41.3,46.4,43.4,40.2,97,92,82,30.18,30.08,12,4,19,0.10
2013-1-6,47.9,44.6,40.4,46.2,42.8,39.6,98,93,87,30.23,30.14,12,4,19,0.07
2013-1-7,48.8,47.8,45.1,48.3,46.8,42.6,99,96,91,30.27,30.11,16,9,24,0.09
2013-1-8,50.5,48.4,47.4,48.7,47.2,45.6,98,96,91,30.26,29.99,17,11,26,0.01
2013-1-9,48.9,44.4,37.1,47.1,40.5,33.0,96,86,73,30.04,29.84,20,10,29,0.52
2013-1-10,45.4,40.4,34.5,40.4,36.3,32.8,97,86,71,30.20,30.02,23,9,28,0.24
2013-1-11,44.7,39.7,33.7,41.0,36.1,31.9,94,87,71,30.29,30.16,17,3,22,0.08
2013-1-12,33.9,32.7,30.6,32.4,30.7,27.7,94,92,87,30.36,30.25,8,4,13,0.00
2013-1-13,40.9,34.6,29.2,32.2,29.2,26.6,90,81,69,30.42,30.34,8,5,13,0.00
2013-1-14,45.1,37.8,32.7,37.0,32.1,28.2,89,80,70,30.51,30.48,12,5,16,0.00
2013-1-15,33.6,33.1,32.2,30.7,30.2,29.3,89,89,89,30.52,30.51,8,5,9,0.00
2013-1-19,39.8,36.7,32.5,39.5,36.4,32.3,99,99,99,30.28,30.21,9,2,13,0.01
2013-1-20,46.1,36.5,28.6,42.3,35.3,28.4,100,96,86,30.25,30.15,7,2,13,0.01
2013-1-21,54.6,41.7,31.8,42.6,35.6,29.7,98,80,48,30.18,30.05,6,2,8,0.00
2013-1-22,58.2,47.0,39.5,45.2,37.8,30.5,87,71,38,30.06,29.88,11,4,20,0.00
2013-1-23,49.0,44.3,38.6,46.7,42.0,37.8,98,92,75,30.16,29.83,14,3,18,0.76
2013-1-24,49.9,43.4,35.6,48.4,42.4,35.1,99,96,91,30.16,30.08,12,5,16,0.06
2013-1-25,48.9,46.5,42.4,48.2,45.7,41.8,98,97,89,30.14,30.01,15,9,24,0.22
2013-1-26,47.7,44.5,39.4,44.2,40.5,37.8,98,86,76,30.15,30.00,13,7,18,0.15
2013-1-27,45.8,41.4,37.1,44.0,39.9,36.1,97,94,88,30.22,30.13,13,5,19,0.58
2013-1-28,46.7,45.0,43.1,43.7,42.4,40.1,96,90,83,30.37,30.17,15,8,20,0.02
2013-1-29,46.7,43.7,39.8,45.0,42.4,39.0,98,95,89,30.54,30.37,11,4,20,0.09
2013-1-30,47.6,43.1,38.1,46.2,42.2,37.6,98,97,94,30.55,30.44,7,3,15,0.00
2013-1-31,51.5,44.4,39.6,46.6,42.4,38.8,98,93,77,30.44,30.30,12,5,16,0.02